Time;durP1;ratioP1;P1;durP2;ratioP2;P2;SDS_P1;SDS_P2;PMS_P1;PMS_P2;Temp;Humidity;BMP_temperature;BMP_pressure;BME280_temperature;BME280_humidity;BME280_pressure;Samples;Min_cycle;Max_cycle;Signal;HPM_P1;HPM_P2
2020/12/26 00:00:33;;;;;;;13.85;5.78;;;3.40;99.90;;;;;;6757174;88;21019;-73
2020/12/26 00:10:33;;;;;;;10.98;5.37;;;3.40;99.90;;;;;;6758106;88;20679;-72
2020/12/26 00:20:34;;;;;;;11.15;5.50;;;3.40;99.90;;;;;;6746035;88;20652;-72
2020/12/26 00:30:34;;;;;;;13.05;5.70;;;3.50;99.90;;;;;;6743586;88;20205;-73
2020/12/26 00:40:35;;;;;;;11.98;6.03;;;3.50;99.90;;;;;;6740581;87;20209;-72
2020/12/26 00:50:35;;;;;;;11.85;6.10;;;3.60;99.90;;;;;;6743126;88;20314;-72
2020/12/26 01:00:36;;;;;;;13.52;6.28;;;3.60;99.90;;;;;;6745900;88;20685;-72
2020/12/26 01:10:36;;;;;;;14.10;7.05;;;3.50;99.90;;;;;;6741080;88;20188;-72
2020/12/26 01:20:37;;;;;;;15.77;7.75;;;3.60;99.90;;;;;;6746471;88;20702;-72
2020/12/26 01:30:37;;;;;;;14.75;7.82;;;3.50;99.90;;;;;;6747145;88;20643;-72
2020/12/26 01:40:38;;;;;;;16.27;8.25;;;3.50;99.90;;;;;;6748278;88;20204;-72
2020/12/26 01:50:39;;;;;;;17.60;8.57;;;3.40;99.90;;;;;;6746317;88;20201;-72
2020/12/26 02:00:40;;;;;;;17.60;8.98;;;3.50;99.90;;;;;;6745344;88;21099;-72
2020/12/26 02:10:42;;;;;;;19.05;9.15;;;3.60;99.90;;;;;;6748543;88;20196;-72
2020/12/26 02:20:42;;;;;;;21.37;8.88;;;3.50;99.90;;;;;;6746691;88;20617;-72
2020/12/26 02:30:43;;;;;;;18.48;8.60;;;3.60;99.90;;;;;;6747535;88;20235;-72
2020/12/26 02:40:46;;;;;;;19.92;8.93;;;3.50;99.90;;;;;;6744830;88;20201;-72
2020/12/26 02:50:48;;;;;;;20.52;9.55;;;3.50;99.90;;;;;;6745141;88;20278;-72
2020/12/26 03:00:49;;;;;;;22.65;9.18;;;3.50;99.90;;;;;;6748134;88;20615;-72
2020/12/26 03:10:49;;;;;;;23.50;9.30;;;3.40;99.90;;;;;;6746001;88;20188;-72
2020/12/26 03:20:50;;;;;;;21.30;9.10;;;3.40;99.90;;;;;;6747215;88;20546;-72
2020/12/26 03:30:51;;;;;;;19.98;8.38;;;3.20;99.90;;;;;;6747661;88;20212;-72
2020/12/26 03:40:51;;;;;;;18.35;8.77;;;3.20;99.90;;;;;;6733393;87;20384;-72
2020/12/26 03:50:52;;;;;;;20.20;8.40;;;3.20;99.90;;;;;;6737874;88;20188;-72
2020/12/26 04:00:52;;;;;;;18.60;7.50;;;3.20;99.90;;;;;;6743758;88;20326;-72
2020/12/26 04:10:53;;;;;;;18.02;7.45;;;3.30;99.90;;;;;;6741499;88;20658;-72
2020/12/26 04:20:53;;;;;;;20.98;7.82;;;3.30;99.90;;;;;;6747683;88;20671;-72
2020/12/26 04:30:54;;;;;;;18.90;6.87;;;3.30;99.90;;;;;;6736793;88;20200;-72
2020/12/26 04:40:54;;;;;;;13.23;7.00;;;3.50;99.90;;;;;;6741996;88;20216;-73
2020/12/26 04:51:02;;;;;;;16.23;6.95;;;3.50;99.90;;;;;;6748173;88;20273;-72
2020/12/26 05:01:05;;;;;;;13.15;6.30;;;3.60;99.90;;;;;;6743969;88;20316;-72
2020/12/26 05:11:06;;;;;;;16.50;6.32;;;3.50;99.90;;;;;;6736013;88;20340;-72
2020/12/26 05:21:06;;;;;;;10.60;5.45;;;3.40;99.90;;;;;;6748601;88;20212;-72
2020/12/26 05:42:17;;;;;;;10.98;5.20;;;3.60;99.90;;;;;;6752038;88;20530;-75
2020/12/26 05:52:18;;;;;;;10.80;5.22;;;3.80;99.90;;;;;;6742198;88;20378;-76
2020/12/26 06:02:26;;;;;;;14.20;5.15;;;3.80;99.90;;;;;;6751086;88;20203;-75
2020/12/26 06:12:29;;;;;;;10.05;5.03;;;3.80;99.90;;;;;;6753693;88;20246;-75
2020/12/26 06:22:52;;;;;;;14.50;5.93;;;3.70;99.90;;;;;;6747495;88;20327;-74
2020/12/26 06:32:52;;;;;;;12.07;5.47;;;3.70;99.90;;;;;;6749930;88;20304;-75
2020/12/26 06:42:54;;;;;;;12.70;5.40;;;3.80;99.90;;;;;;6750380;88;20231;-75
2020/12/26 06:52:55;;;;;;;10.77;5.00;;;3.90;99.90;;;;;;6744091;88;20185;-76
2020/12/26 07:03:32;;;;;;;12.98;4.37;;;3.60;99.90;;;;;;6744981;88;20222;-76
2020/12/26 07:13:43;;;;;;;;;;;3.70;99.90;;;;;;6750301;88;20601;-76
2020/12/26 07:23:49;;;;;;;9.88;4.85;;;3.60;99.90;;;;;;6746564;88;20044;-76
2020/12/26 07:33:49;;;;;;;10.60;4.17;;;3.50;99.90;;;;;;6749410;88;20245;-75
2020/12/26 07:43:50;;;;;;;8.55;3.72;;;3.40;99.90;;;;;;6749831;88;20243;-75
2020/12/26 07:53:57;;;;;;;10.15;3.60;;;3.40;99.90;;;;;;6747307;88;20189;-76
2020/12/26 08:04:01;;;;;;;8.27;3.65;;;3.40;99.90;;;;;;6743600;88;20616;-74
2020/12/26 08:14:02;;;;;;;8.65;4.00;;;3.40;99.90;;;;;;6748890;88;20727;-75
2020/12/26 08:24:04;;;;;;;6.45;2.92;;;3.40;99.90;;;;;;6738685;88;20223;-75
2020/12/26 08:34:27;;;;;;;7.57;2.83;;;3.50;99.90;;;;;;6754323;88;20192;-75
2020/12/26 08:44:30;;;;;;;6.85;3.25;;;3.40;99.90;;;;;;6737413;88;20256;-74
2020/12/26 08:54:31;;;;;;;9.05;3.50;;;3.30;99.90;;;;;;6751488;88;20698;-75
2020/12/26 09:04:31;;;;;;;5.50;3.03;;;3.50;99.90;;;;;;6748137;88;20213;-74
2020/12/26 09:14:32;;;;;;;7.12;3.53;;;3.70;99.90;;;;;;6746481;88;20231;-74
2020/12/26 09:24:33;;;;;;;8.40;3.20;;;4.40;99.90;;;;;;6747652;88;20226;-76
2020/12/26 09:34:35;;;;;;;5.12;3.10;;;5.20;99.90;;;;;;6752405;88;20205;-76
2020/12/26 09:44:36;;;;;;;6.37;3.00;;;5.90;99.90;;;;;;6750242;88;20211;-76
2020/12/26 09:54:36;;;;;;;4.00;2.55;;;6.30;99.90;;;;;;6756890;88;20666;-75
2020/12/26 10:04:37;;;;;;;5.18;2.45;;;6.50;99.90;;;;;;6754605;88;20197;-75
2020/12/26 10:14:37;;;;;;;3.03;1.52;;;7.50;99.90;;;;;;6742722;88;20743;-75
2020/12/26 10:24:38;;;;;;;3.13;1.13;;;7.10;99.90;;;;;;6752294;88;20200;-75
2020/12/26 10:34:38;;;;;;;2.83;0.95;;;7.10;99.90;;;;;;6746650;88;20533;-75
2020/12/26 10:44:39;;;;;;;2.75;0.90;;;6.70;99.90;;;;;;6757922;88;20579;-75
2020/12/26 10:54:39;;;;;;;5.18;0.70;;;6.20;99.90;;;;;;6753987;88;20346;-75
2020/12/26 11:04:40;;;;;;;3.10;0.90;;;5.60;99.90;;;;;;6756846;88;20200;-73
2020/12/26 11:14:40;;;;;;;2.20;0.90;;;5.90;99.90;;;;;;6750837;88;20689;-76
2020/12/26 11:24:41;;;;;;;2.90;0.73;;;6.00;99.90;;;;;;6738386;88;20651;-76
2020/12/26 11:34:42;;;;;;;1.80;0.70;;;5.60;99.90;;;;;;6748353;88;20330;-74
2020/12/26 11:44:42;;;;;;;3.60;0.88;;;5.60;99.90;;;;;;6746743;88;20180;-75
2020/12/26 11:54:43;;;;;;;1.90;0.70;;;6.60;99.90;;;;;;6742361;88;20194;-75
2020/12/26 12:04:43;;;;;;;2.15;0.70;;;6.80;99.90;;;;;;6748005;88;20180;-74
2020/12/26 12:14:44;;;;;;;2.72;0.50;;;7.10;99.90;;;;;;6749622;88;20696;-75
2020/12/26 12:24:44;;;;;;;4.20;0.65;;;7.30;99.90;;;;;;6746251;88;20184;-75
2020/12/26 12:34:45;;;;;;;2.67;0.40;;;7.60;99.90;;;;;;6747515;88;20226;-75
2020/12/26 12:44:45;;;;;;;3.37;0.60;;;7.40;99.90;;;;;;6742224;88;20299;-74
2020/12/26 12:54:47;;;;;;;1.90;0.52;;;7.00;99.90;;;;;;6749662;88;20648;-76
2020/12/26 13:04:47;;;;;;;2.65;1.00;;;8.00;99.90;;;;;;6739598;88;20609;-76
2020/12/26 13:14:48;;;;;;;3.47;0.70;;;8.10;99.90;;;;;;6743758;88;20343;-76
2020/12/26 13:24:48;;;;;;;3.65;0.80;;;9.00;99.80;;;;;;6745876;88;20705;-76
2020/12/26 13:34:49;;;;;;;4.53;0.75;;;9.20;98.40;;;;;;6743660;88;20315;-76
2020/12/26 13:44:50;;;;;;;2.28;0.80;;;8.90;99.90;;;;;;6750902;88;20263;-76
2020/12/26 13:54:50;;;;;;;1.95;0.70;;;7.20;99.90;;;;;;6747945;88;20239;-76
2020/12/26 14:04:51;;;;;;;2.60;0.88;;;6.30;99.90;;;;;;6750915;88;20236;-75
2020/12/26 14:14:51;;;;;;;2.87;0.70;;;6.00;99.90;;;;;;6742644;88;20223;-75
2020/12/26 14:24:51;;;;;;;3.25;0.98;;;5.80;99.90;;;;;;6749632;88;20198;-74
2020/12/26 14:34:52;;;;;;;3.20;1.00;;;5.60;99.90;;;;;;6752126;88;20305;-75
2020/12/26 14:44:52;;;;;;;4.28;0.90;;;5.50;99.90;;;;;;6754861;88;20243;-75
2020/12/26 14:54:53;;;;;;;2.83;0.90;;;5.30;99.90;;;;;;6746548;87;20206;-75
2020/12/26 15:04:53;;;;;;;3.50;0.90;;;5.30;99.90;;;;;;6756154;88;20749;-75
2020/12/26 15:14:54;;;;;;;2.28;1.00;;;5.10;99.90;;;;;;6753436;88;20369;-75
2020/12/26 15:24:54;;;;;;;3.28;1.00;;;5.10;99.90;;;;;;6747026;88;20207;-75
2020/12/26 15:34:55;;;;;;;4.37;1.40;;;4.90;99.90;;;;;;6754046;88;20226;-74
2020/12/26 15:44:55;;;;;;;2.10;1.00;;;4.70;99.90;;;;;;6746329;88;20209;-74
2020/12/26 15:54:56;;;;;;;3.15;1.37;;;4.60;99.90;;;;;;6759351;88;20196;-74
2020/12/26 16:04:56;;;;;;;3.37;1.55;;;4.60;99.90;;;;;;6745256;88;20205;-74
2020/12/26 16:14:57;;;;;;;5.43;1.60;;;4.60;99.90;;;;;;6747198;88;20362;-74
2020/12/26 16:24:59;;;;;;;3.50;1.42;;;4.60;99.90;;;;;;6750599;88;20332;-75
2020/12/26 16:34:59;;;;;;;3.55;1.55;;;4.60;99.90;;;;;;6749297;88;20519;-75
2020/12/26 16:45:01;;;;;;;2.30;1.17;;;4.60;99.90;;;;;;6756093;88;20268;-75
2020/12/26 16:55:02;;;;;;;3.12;1.52;;;4.50;99.90;;;;;;6757456;88;20183;-75
2020/12/26 17:05:04;;;;;;;3.92;1.55;;;4.40;99.90;;;;;;6756285;88;20184;-74
2020/12/26 17:15:05;;;;;;;4.95;1.98;;;4.30;99.90;;;;;;6758068;88;21055;-74
2020/12/26 17:25:05;;;;;;;3.80;1.80;;;4.30;99.90;;;;;;6742320;88;20361;-76
2020/12/26 17:35:06;;;;;;;3.92;1.70;;;4.30;99.90;;;;;;6745185;88;20497;-76
2020/12/26 17:45:07;;;;;;;3.65;1.52;;;4.30;99.90;;;;;;6744442;88;20785;-76
2020/12/26 17:55:08;;;;;;;3.53;1.62;;;4.30;99.90;;;;;;6754197;88;20200;-76
2020/12/26 18:05:09;;;;;;;2.60;1.30;;;4.30;99.90;;;;;;6742743;88;20232;-76
2020/12/26 18:15:10;;;;;;;2.97;1.20;;;4.40;99.90;;;;;;6748237;88;20250;-75
2020/12/26 18:25:10;;;;;;;5.35;1.33;;;4.40;99.90;;;;;;6744987;88;20404;-75
2020/12/26 18:35:11;;;;;;;2.50;1.33;;;4.30;99.90;;;;;;6751086;88;20229;-76
2020/12/26 18:45:11;;;;;;;3.05;1.27;;;4.20;99.90;;;;;;6756642;88;20219;-76
2020/12/26 18:55:12;;;;;;;2.35;0.85;;;4.20;99.90;;;;;;6747233;88;20243;-76
2020/12/26 19:05:12;;;;;;;3.55;1.00;;;4.20;99.90;;;;;;6752921;88;20198;-76
2020/12/26 19:15:14;;;;;;;4.62;1.50;;;4.20;99.90;;;;;;6750339;88;20210;-75
2020/12/26 19:25:15;;;;;;;2.30;1.12;;;4.10;99.90;;;;;;6745083;88;20195;-75
2020/12/26 19:35:15;;;;;;;3.05;1.58;;;4.10;99.90;;;;;;6739886;88;20200;-75
2020/12/26 19:45:16;;;;;;;2.10;1.30;;;4.10;99.90;;;;;;6739662;88;21014;-75
2020/12/26 19:55:17;;;;;;;2.83;1.65;;;4.20;99.90;;;;;;6740477;88;20276;-75
2020/12/26 20:05:17;;;;;;;3.28;1.52;;;4.20;99.90;;;;;;6741216;88;20207;-75
2020/12/26 20:15:18;;;;;;;3.75;1.58;;;4.20;99.90;;;;;;6740953;88;20643;-75
2020/12/26 20:25:18;;;;;;;4.05;1.40;;;4.20;99.90;;;;;;6740213;88;20714;-75
2020/12/26 20:35:19;;;;;;;7.50;1.27;;;4.20;99.90;;;;;;6739794;88;20253;-74
2020/12/26 20:45:19;;;;;;;3.65;1.30;;;4.10;99.90;;;;;;6741431;88;20298;-75
2020/12/26 20:55:20;;;;;;;2.30;1.25;;;4.00;99.90;;;;;;6741318;88;20187;-75
2020/12/26 21:05:20;;;;;;;2.60;1.17;;;4.00;99.90;;;;;;6747577;88;20590;-75
2020/12/26 21:15:21;;;;;;;3.33;1.45;;;4.00;99.90;;;;;;6767880;88;20191;-75
2020/12/26 21:25:22;;;;;;;1.85;1.20;;;4.00;99.90;;;;;;6746034;88;20192;-76
2020/12/26 21:35:22;;;;;;;3.22;1.62;;;4.00;99.90;;;;;;6749714;88;20672;-75
2020/12/26 21:45:23;;;;;;;3.62;1.30;;;4.00;99.90;;;;;;6745905;88;20184;-75
2020/12/26 21:55:23;;;;;;;2.15;0.85;;;4.00;99.90;;;;;;6758430;88;20838;-75
2020/12/26 22:05:24;;;;;;;3.33;1.30;;;4.10;99.90;;;;;;6759350;88;21235;-75
2020/12/26 22:15:24;;;;;;;1.75;1.08;;;4.00;99.90;;;;;;6759207;88;20261;-75
2020/12/26 22:25:25;;;;;;;4.82;1.10;;;3.90;99.90;;;;;;6754838;88;20417;-75
2020/12/26 22:35:25;;;;;;;4.12;1.17;;;3.90;99.90;;;;;;6742372;88;20240;-75
2020/12/26 22:45:26;;;;;;;2.83;1.17;;;3.90;99.90;;;;;;6742283;88;20266;-75
2020/12/26 22:55:26;;;;;;;2.03;1.02;;;3.90;99.90;;;;;;6748496;88;20207;-76
2020/12/26 23:05:28;;;;;;;1.83;0.90;;;4.00;99.90;;;;;;6754207;88;20674;-75
2020/12/26 23:15:28;;;;;;;1.90;0.70;;;4.00;99.90;;;;;;6748204;87;20656;-76
2020/12/26 23:25:29;;;;;;;1.70;0.60;;;4.00;99.90;;;;;;6751915;88;20291;-75
2020/12/26 23:35:29;;;;;;;1.10;0.52;;;4.00;99.90;;;;;;6746523;88;20303;-76
2020/12/26 23:45:30;;;;;;;1.27;0.68;;;3.80;99.90;;;;;;6760019;88;20237;-76
2020/12/26 23:55:30;;;;;;;1.50;0.77;;;3.80;99.90;;;;;;6753633;88;20213;-76
